createdAt,value
2022-12-29T00:00:27.474Z,27.77
2022-12-29T00:03:29.793Z,28.30
2022-12-29T00:06:32.454Z,24.13
2022-12-29T00:09:35.417Z,23.00
2022-12-29T00:12:56.283Z,25.70
2022-12-29T00:15:58.578Z,28.45
2022-12-29T00:19:01.027Z,28.73
2022-12-29T00:22:21.983Z,25.33
2022-12-29T00:25:42.802Z,24.98
2022-12-29T00:29:03.816Z,23.05
2022-12-29T00:32:26.183Z,21.63
2022-12-29T00:35:34.624Z,26.27
2022-12-29T00:38:56.316Z,23.30
2022-12-29T00:42:22.074Z,22.98
2022-12-29T00:45:24.342Z,23.17
2022-12-29T00:48:45.297Z,22.65
2022-12-29T00:51:47.902Z,25.80
2022-12-29T00:54:50.107Z,25.20
2022-12-29T00:57:52.297Z,22.45
2022-12-29T01:01:01.602Z,21.90
2022-12-29T01:04:04.852Z,21.88
2022-12-29T01:07:07.203Z,24.70
2022-12-29T01:10:12.214Z,20.10
2022-12-29T01:13:14.440Z,24.08
2022-12-29T01:16:16.784Z,22.88
2022-12-29T01:19:20.962Z,23.35
2022-12-29T01:22:23.111Z,23.63
2022-12-29T01:25:25.449Z,21.57
2022-12-29T01:28:27.691Z,22.35
2022-12-29T01:31:30.038Z,22.42
2022-12-29T01:34:32.265Z,17.27
2022-12-29T01:37:34.566Z,19.57
2022-12-29T01:40:44.008Z,22.27
2022-12-29T01:43:48.015Z,21.42
2022-12-29T01:46:51.175Z,24.90
2022-12-29T01:49:55.477Z,21.67
2022-12-29T01:53:00.986Z,26.37
2022-12-29T01:56:05.840Z,23.77
2022-12-29T01:59:12.339Z,23.85
2022-12-29T02:02:14.898Z,29.10
2022-12-29T02:05:20.971Z,26.95
2022-12-29T02:08:24.789Z,24.60
2022-12-29T02:11:28.107Z,20.63
2022-12-29T02:14:31.028Z,22.75
2022-12-29T02:17:33.281Z,24.55
2022-12-29T02:20:48.780Z,25.23
2022-12-29T02:24:06.255Z,25.03
2022-12-29T02:27:14.670Z,18.83
2022-12-29T02:30:37.347Z,24.95
2022-12-29T02:33:57.898Z,22.48
2022-12-29T02:37:20.423Z,21.15
2022-12-29T02:40:38.852Z,26.00
2022-12-29T02:43:59.949Z,25.33
2022-12-29T02:47:11.393Z,25.77
2022-12-29T02:50:21.219Z,24.83
2022-12-29T02:53:44.885Z,26.23
2022-12-29T02:56:47.203Z,30.53
2022-12-29T02:59:53.622Z,22.60
2022-12-29T03:03:17.498Z,24.88
2022-12-29T03:06:20.555Z,27.10
2022-12-29T03:09:38.324Z,26.63
2022-12-29T03:13:13.094Z,25.07
2022-12-29T03:16:24.728Z,24.67
2022-12-29T03:19:29.298Z,27.52
2022-12-29T03:22:33.738Z,26.45
2022-12-29T03:25:49.778Z,24.98
2022-12-29T03:28:55.449Z,27.10
2022-12-29T03:32:02.705Z,28.93
2022-12-29T03:35:05.883Z,27.92
2022-12-29T03:38:26.548Z,25.00
2022-12-29T03:41:31.285Z,24.00
2022-12-29T03:44:40.310Z,26.10
2022-12-29T03:47:43.753Z,37.27
2022-12-29T03:50:47.354Z,32.13
2022-12-29T03:53:49.698Z,33.63
2022-12-29T03:56:52.352Z,30.50
2022-12-29T04:00:05.653Z,33.53
2022-12-29T04:03:17.336Z,30.27
2022-12-29T04:06:20.865Z,30.30
2022-12-29T04:09:28.857Z,35.20
2022-12-29T04:12:31.182Z,39.83
2022-12-29T04:15:34.162Z,35.83
2022-12-29T04:18:36.869Z,36.60
2022-12-29T04:21:39.117Z,37.20
2022-12-29T04:24:41.512Z,40.83
2022-12-29T04:27:45.898Z,38.80
2022-12-29T04:31:11.337Z,34.97
2022-12-29T04:34:16.726Z,37.13
2022-12-29T04:37:22.154Z,39.92
2022-12-29T04:40:25.115Z,41.17
2022-12-29T04:43:27.475Z,45.38
2022-12-29T04:46:52.740Z,47.53
2022-12-29T04:50:11.194Z,43.80
2022-12-29T04:53:26.288Z,33.92
2022-12-29T04:56:29.760Z,42.63
2022-12-29T04:59:33.466Z,46.40
2022-12-29T05:02:37.145Z,43.20
2022-12-29T05:05:39.602Z,39.03
2022-12-29T05:08:42.193Z,48.95
2022-12-29T05:11:45.022Z,49.28
2022-12-29T05:14:47.314Z,48.63
2022-12-29T05:17:49.559Z,41.93
2022-12-29T05:20:51.785Z,45.30
2022-12-29T05:23:56.246Z,58.85
2022-12-29T05:27:00.041Z,53.47
2022-12-29T05:30:24.213Z,48.28
2022-12-29T05:33:26.730Z,66.63
2022-12-29T05:36:32.879Z,52.43
2022-12-29T05:39:39.002Z,51.33
2022-12-29T05:42:42.376Z,53.90
2022-12-29T05:46:07.669Z,48.05
2022-12-29T05:49:22.896Z,51.13
2022-12-29T05:52:34.546Z,53.63
2022-12-29T05:55:36.860Z,54.20
2022-12-29T05:58:39.358Z,53.95
2022-12-29T06:01:42.051Z,49.58
2022-12-29T06:04:44.454Z,55.23
2022-12-29T06:07:46.853Z,43.07
2022-12-29T06:10:51.740Z,46.50
2022-12-29T06:13:54.194Z,47.85
2022-12-29T06:16:56.533Z,57.75
2022-12-29T06:19:59.495Z,47.20
2022-12-29T06:23:01.764Z,47.53
2022-12-29T06:26:05.092Z,51.00
2022-12-29T06:29:09.324Z,49.83
2022-12-29T06:32:11.707Z,42.20
2022-12-29T06:35:19.762Z,50.83
2022-12-29T06:38:25.472Z,48.60
2022-12-29T06:41:32.143Z,44.40
2022-12-29T06:45:13.349Z,44.90
2022-12-29T06:48:15.815Z,56.15
2022-12-29T06:51:17.989Z,49.47
2022-12-29T06:54:20.243Z,41.97
2022-12-29T06:57:22.938Z,46.33
2022-12-29T07:00:26.063Z,51.75
2022-12-29T07:03:28.535Z,52.45
2022-12-29T07:06:30.762Z,41.53
2022-12-29T07:09:33.094Z,44.93
2022-12-29T07:12:35.856Z,39.20
2022-12-29T07:15:38.619Z,43.60
2022-12-29T07:18:40.919Z,39.40
2022-12-29T07:21:46.155Z,45.33
2022-12-29T07:24:48.360Z,38.67
2022-12-29T07:27:50.983Z,35.20
2022-12-29T07:30:53.221Z,38.67
2022-12-29T07:33:55.532Z,44.28
2022-12-29T07:36:57.859Z,38.90
2022-12-29T07:40:00.105Z,40.13
2022-12-29T07:43:02.416Z,45.63
2022-12-29T07:46:54.054Z,40.22
2022-12-29T07:49:38.902Z,46.95
2022-12-29T07:52:41.193Z,43.40
2022-12-29T07:55:43.383Z,45.37
2022-12-29T07:58:45.699Z,46.00
2022-12-29T08:01:48.120Z,43.75
2022-12-29T08:04:50.604Z,36.90
2022-12-29T08:07:52.816Z,47.70
2022-12-29T08:10:55.176Z,41.50
2022-12-29T08:13:57.396Z,44.90
2022-12-29T08:17:00.003Z,43.63
2022-12-29T08:20:02.301Z,37.47
2022-12-29T08:23:04.558Z,40.33
2022-12-29T08:26:06.962Z,40.47
2022-12-29T08:29:09.192Z,40.72
2022-12-29T08:32:12.019Z,38.92
2022-12-29T08:35:14.513Z,39.90
2022-12-29T08:38:16.788Z,36.77
2022-12-29T08:41:19.063Z,34.57
2022-12-29T08:44:21.435Z,33.95
2022-12-29T08:47:23.875Z,38.22
2022-12-29T08:50:26.171Z,35.15
2022-12-29T08:53:28.477Z,39.37
2022-12-29T08:56:30.775Z,35.67
2022-12-29T08:59:35.396Z,37.42
2022-12-29T09:02:38.613Z,39.20
2022-12-29T09:05:40.930Z,41.13
2022-12-29T09:08:43.203Z,40.13
2022-12-29T09:11:45.658Z,39.43
2022-12-29T09:14:47.859Z,39.10
2022-12-29T09:17:50.072Z,34.47
2022-12-29T09:20:57.017Z,39.40
2022-12-29T09:23:59.260Z,37.80
2022-12-29T09:27:01.524Z,37.33
2022-12-29T09:30:04.813Z,35.45
2022-12-29T09:33:07.064Z,33.60
2022-12-29T09:36:09.661Z,42.10
2022-12-29T09:39:13.232Z,36.27
2022-12-29T09:42:20.454Z,39.27
2022-12-29T09:45:33.491Z,35.65
2022-12-29T09:48:38.794Z,35.63
2022-12-29T09:51:42.773Z,38.30
2022-12-29T09:55:08.985Z,37.03
2022-12-29T09:58:26.631Z,36.97
2022-12-29T10:01:32.068Z,31.63
2022-12-29T10:04:34.513Z,38.90
2022-12-29T10:07:45.499Z,41.28
2022-12-29T10:11:05.896Z,39.00
2022-12-29T10:14:16.833Z,37.27
2022-12-29T10:17:25.143Z,39.28
2022-12-29T10:20:36.617Z,36.13
2022-12-29T10:23:44.968Z,39.17
2022-12-29T10:26:48.418Z,40.60
2022-12-29T10:29:55.995Z,39.00
2022-12-29T10:33:01.753Z,40.50
2022-12-29T10:36:11.624Z,35.97
2022-12-29T10:39:13.877Z,36.85
2022-12-29T10:42:21.870Z,38.00
2022-12-29T10:45:26.813Z,42.23
2022-12-29T10:48:33.676Z,48.95
2022-12-29T10:51:39.420Z,41.97
2022-12-29T10:54:57.053Z,39.10
2022-12-29T10:58:03.700Z,38.13
2022-12-29T11:01:06.036Z,40.80
2022-12-29T11:04:23.665Z,41.90
2022-12-29T11:07:27.779Z,37.00
2022-12-29T11:10:37.067Z,39.30
2022-12-29T11:13:50.567Z,41.30
2022-12-29T11:17:03.081Z,36.70
2022-12-29T11:20:23.944Z,39.85
2022-12-29T11:23:39.740Z,36.08
2022-12-29T11:26:44.751Z,39.45
2022-12-29T11:29:47.489Z,47.60
2022-12-29T11:32:53.911Z,44.43
2022-12-29T11:36:19.351Z,40.38
2022-12-29T11:39:41.781Z,41.30
2022-12-29T11:42:49.526Z,40.10
2022-12-29T11:45:53.356Z,38.17
2022-12-29T11:48:59.620Z,38.87
2022-12-29T11:52:01.936Z,36.63
2022-12-29T11:55:05.527Z,43.33
2022-12-29T11:58:07.902Z,41.90
2022-12-29T12:01:28.592Z,40.50
2022-12-29T12:04:33.725Z,40.03
2022-12-29T12:07:40.205Z,37.50
2022-12-29T12:10:55.695Z,39.30
2022-12-29T12:14:08.127Z,41.80
2022-12-29T12:17:39.504Z,43.97
2022-12-29T12:21:20.963Z,41.87
2022-12-29T12:24:35.786Z,40.75
2022-12-29T12:27:44.610Z,41.30
2022-12-29T12:30:48.564Z,42.47
2022-12-29T12:33:54.453Z,35.80
2022-12-29T12:36:56.600Z,41.80
2022-12-29T12:40:13.810Z,45.53
2022-12-29T12:43:24.983Z,44.17
2022-12-29T12:46:50.543Z,45.33
2022-12-29T12:49:52.856Z,43.70
2022-12-29T12:52:55.107Z,42.83
2022-12-29T12:56:00.456Z,40.13
2022-12-29T12:59:12.087Z,45.42
2022-12-29T13:02:33.120Z,45.58
2022-12-29T13:05:35.411Z,40.50
2022-12-29T13:08:40.407Z,45.03
2022-12-29T13:11:48.733Z,38.42
2022-12-29T13:14:51.164Z,41.22
2022-12-29T13:17:58.561Z,41.58
2022-12-29T13:21:09.019Z,37.33
2022-12-29T13:24:14.320Z,37.07
2022-12-29T13:27:37.615Z,45.25
2022-12-29T13:30:50.500Z,43.28
2022-12-29T13:34:05.227Z,41.65
2022-12-29T13:37:13.063Z,37.57
2022-12-29T13:40:17.980Z,41.23
2022-12-29T13:43:20.895Z,44.63
2022-12-29T13:46:26.106Z,36.85
2022-12-29T13:49:28.667Z,37.22
2022-12-29T13:52:56.201Z,38.53
2022-12-29T13:56:02.688Z,41.97
2022-12-29T13:59:16.877Z,39.35
2022-12-29T14:02:39.133Z,42.50
2022-12-29T14:05:41.679Z,41.92
2022-12-29T14:08:44.992Z,45.60
2022-12-29T14:11:47.288Z,48.07
2022-12-29T14:14:50.318Z,40.40
2022-12-29T14:18:06.779Z,40.92
2022-12-29T14:21:11.858Z,40.90
2022-12-29T14:24:32.617Z,41.43
2022-12-29T14:27:44.498Z,41.37
2022-12-29T14:30:47.861Z,47.40
2022-12-29T14:34:19.481Z,43.55
2022-12-29T14:37:24.740Z,46.33
2022-12-29T14:40:29.983Z,40.73
2022-12-29T14:43:32.415Z,43.30
2022-12-29T14:46:57.446Z,45.38
2022-12-29T14:50:14.355Z,47.70
2022-12-29T14:53:35.532Z,46.50
2022-12-29T14:56:40.870Z,48.30
2022-12-29T14:59:44.699Z,54.53
2022-12-29T15:02:51.686Z,52.55
2022-12-29T15:05:55.750Z,52.63
2022-12-29T15:08:57.890Z,57.05
2022-12-29T15:12:18.963Z,58.43
2022-12-29T15:15:25.880Z,57.80
2022-12-29T15:18:30.131Z,63.15
2022-12-29T15:21:36.655Z,54.47
2022-12-29T15:24:43.016Z,66.45
2022-12-29T15:27:50.671Z,64.00
2022-12-29T15:30:54.289Z,63.87
2022-12-29T15:34:03.331Z,71.85
2022-12-29T15:37:09.056Z,67.00
2022-12-29T15:40:22.737Z,65.38
2022-12-29T15:43:28.250Z,71.67
2022-12-29T15:46:33.442Z,69.27
2022-12-29T15:49:36.667Z,84.28
2022-12-29T15:52:40.173Z,67.95
2022-12-29T15:55:43.479Z,80.63
2022-12-29T15:58:48.669Z,73.23
2022-12-29T16:01:51.547Z,94.50
2022-12-29T16:05:16.539Z,69.90
2022-12-29T16:08:25.741Z,68.75
2022-12-29T16:11:32.289Z,80.82
2022-12-29T16:14:38.613Z,74.30
2022-12-29T16:17:51.966Z,69.37
2022-12-29T16:20:55.484Z,78.75
2022-12-29T16:24:01.484Z,76.05
2022-12-29T16:27:08.738Z,70.10
2022-12-29T16:30:17.272Z,73.23
2022-12-29T16:33:38.774Z,67.27
2022-12-29T16:36:52.705Z,63.28
2022-12-29T16:39:54.937Z,77.72
2022-12-29T16:43:04.848Z,69.80
2022-12-29T16:46:27.797Z,83.20
2022-12-29T16:49:31.196Z,74.07
2022-12-29T16:52:35.388Z,62.22
2022-12-29T16:55:37.611Z,62.67
2022-12-29T16:58:40.238Z,69.15
2022-12-29T17:01:42.575Z,58.20
2022-12-29T17:04:49.507Z,55.57
2022-12-29T17:07:55.928Z,69.10
2022-12-29T17:11:16.887Z,60.13
2022-12-29T17:14:28.370Z,60.00
2022-12-29T17:17:35.135Z,51.10
2022-12-29T17:20:37.526Z,57.90
2022-12-29T17:23:39.800Z,58.35
2022-12-29T17:26:42.224Z,56.13
2022-12-29T17:29:44.598Z,59.22
2022-12-29T17:32:52.297Z,56.80
2022-12-29T17:35:55.830Z,52.33
2022-12-29T17:38:58.267Z,54.28
2022-12-29T17:42:00.519Z,45.08
2022-12-29T17:45:04.291Z,51.50
2022-12-29T17:48:13.632Z,50.77
2022-12-29T17:51:16.108Z,54.90
2022-12-29T17:54:22.756Z,63.53
2022-12-29T17:57:25.098Z,58.33
2022-12-29T18:00:28.662Z,58.67
2022-12-29T18:03:33.687Z,64.10
2022-12-29T18:06:36.284Z,59.80
2022-12-29T18:09:38.508Z,57.15
2022-12-29T18:12:42.418Z,62.90
2022-12-29T18:15:44.678Z,64.05
2022-12-29T18:18:46.992Z,79.47
2022-12-29T18:21:49.287Z,84.00
2022-12-29T18:24:51.628Z,78.75
2022-12-29T18:27:53.845Z,72.88
2022-12-29T18:30:57.053Z,73.90
2022-12-29T18:34:00.300Z,75.33
2022-12-29T18:37:03.044Z,72.77
2022-12-29T18:40:05.689Z,72.80
2022-12-29T18:43:08.188Z,80.43
2022-12-29T18:46:10.914Z,79.65
2022-12-29T18:49:13.320Z,71.23
2022-12-29T18:52:15.543Z,72.77
2022-12-29T18:55:22.783Z,74.25
2022-12-29T18:58:30.602Z,80.70
2022-12-29T19:01:36.226Z,88.35
2022-12-29T19:04:38.902Z,82.97
2022-12-29T19:07:41.233Z,83.77
2022-12-29T19:10:44.117Z,82.15
2022-12-29T19:13:46.362Z,86.45
2022-12-29T19:16:49.035Z,102.97
2022-12-29T19:19:51.323Z,90.70
2022-12-29T19:22:54.382Z,95.23
2022-12-29T19:25:56.678Z,93.32
2022-12-29T19:28:59.793Z,90.45
2022-12-29T19:32:02.343Z,82.38
2022-12-29T19:35:04.898Z,93.40
2022-12-29T19:38:07.627Z,112.27
2022-12-29T19:41:09.900Z,109.30
2022-12-29T19:44:12.161Z,118.63
2022-12-29T19:47:14.490Z,101.00
2022-12-29T19:50:17.734Z,101.70
2022-12-29T19:53:20.901Z,134.90
2022-12-29T19:56:23.102Z,116.85
2022-12-29T19:59:25.361Z,122.03
2022-12-29T20:02:28.990Z,113.40
2022-12-29T20:05:31.255Z,88.70
2022-12-29T20:08:34.159Z,86.30
2022-12-29T20:11:37.218Z,91.25
2022-12-29T20:14:40.702Z,83.05
2022-12-29T20:18:12.398Z,85.05
2022-12-29T20:21:06.675Z,86.97
2022-12-29T20:24:09.026Z,84.93
2022-12-29T20:27:12.042Z,81.05
2022-12-29T20:30:14.306Z,83.72
2022-12-29T20:33:16.473Z,89.78
2022-12-29T20:36:20.113Z,106.27
2022-12-29T20:39:22.350Z,112.13
2022-12-29T20:42:24.687Z,116.25
2022-12-29T20:45:27.188Z,109.60
2022-12-29T20:48:29.751Z,95.47
2022-12-29T20:51:59.281Z,104.33
2022-12-29T20:54:54.478Z,104.67
2022-12-29T20:58:23.129Z,103.90
2022-12-29T21:01:20.478Z,125.25
2022-12-29T21:04:22.835Z,108.78
2022-12-29T21:07:25.191Z,98.90
2022-12-29T21:10:27.460Z,105.83
2022-12-29T21:13:29.762Z,95.68
2022-12-29T21:16:32.075Z,88.50
2022-12-29T21:19:34.281Z,110.97
2022-12-29T21:22:36.453Z,91.47
2022-12-29T21:25:43.233Z,103.37
2022-12-29T21:28:46.303Z,99.43
2022-12-29T21:31:48.594Z,103.40
2022-12-29T21:34:50.991Z,111.55
2022-12-29T21:37:53.397Z,120.80
2022-12-29T21:40:55.638Z,115.03
2022-12-29T21:44:17.146Z,109.53
2022-12-29T21:47:19.359Z,109.72
2022-12-29T21:50:21.699Z,116.30
2022-12-29T21:53:24.053Z,101.03
2022-12-29T21:56:26.621Z,106.13
2022-12-29T21:59:47.603Z,93.85
2022-12-29T22:03:11.371Z,87.70
2022-12-29T22:06:37.264Z,87.50
2022-12-29T22:09:58.371Z,85.13
2022-12-29T22:13:01.154Z,121.63
2022-12-29T22:16:04.715Z,123.78
2022-12-29T22:19:08.847Z,134.05
2022-12-29T22:22:11.188Z,124.57
2022-12-29T22:25:13.940Z,115.17
2022-12-29T22:28:16.738Z,91.30
2022-12-29T22:31:29.552Z,98.07
2022-12-29T22:34:31.937Z,87.60
2022-12-29T22:37:34.629Z,95.15
2022-12-29T22:40:36.891Z,91.40
2022-12-29T22:43:39.491Z,84.90
2022-12-29T22:46:41.704Z,81.97
2022-12-29T22:49:44.241Z,76.43
2022-12-29T22:52:46.536Z,80.65
2022-12-29T22:55:48.728Z,82.90
2022-12-29T22:58:51.048Z,94.80
2022-12-29T23:01:53.427Z,86.18
2022-12-29T23:05:04.856Z,91.60
2022-12-29T23:08:07.602Z,96.93
2022-12-29T23:11:11.432Z,95.43
2022-12-29T23:14:13.798Z,100.80
2022-12-29T23:17:16.067Z,119.13
2022-12-29T23:20:18.404Z,93.97
2022-12-29T23:23:48.111Z,90.15
2022-12-29T23:26:50.984Z,105.43
2022-12-29T23:29:53.178Z,101.43
2022-12-29T23:32:55.423Z,104.85
2022-12-29T23:35:57.651Z,99.43
2022-12-29T23:38:59.963Z,97.30
2022-12-29T23:42:02.239Z,89.17
2022-12-29T23:45:05.606Z,83.67
2022-12-29T23:48:07.917Z,96.43
2022-12-29T23:51:10.282Z,86.63
2022-12-29T23:54:12.511Z,74.68
2022-12-29T23:57:15.023Z,78.13
